地図

経路データ

SID SEASON NUMBER BASIN SUBBASIN NAME ISO_TIME NATURE LAT LON WMO_WIND WMO_PRES WMO_AGENCY TRACK_TYPE DIST2LAND LANDFALL IFLAG USA_AGENCY USA_ATCF_ID USA_LAT USA_LON USA_RECORD USA_STATUS USA_WIND USA_PRES USA_SSHS USA_R34_NE USA_R34_SE USA_R34_SW USA_R34_NW USA_R50_NE USA_R50_SE USA_R50_SW USA_R50_NW USA_R64_NE USA_R64_SE USA_R64_SW USA_R64_NW USA_POCI USA_ROCI USA_RMW USA_EYE TOKYO_LAT TOKYO_LON TOKYO_GRADE TOKYO_WIND TOKYO_PRES TOKYO_R50_DIR TOKYO_R50_LONG TOKYO_R50_SHORT TOKYO_R30_DIR TOKYO_R30_LONG TOKYO_R30_SHORT TOKYO_LAND CMA_LAT CMA_LON CMA_CAT CMA_WIND CMA_PRES HKO_LAT HKO_LON HKO_CAT HKO_WIND HKO_PRES NEWDELHI_LAT NEWDELHI_LON NEWDELHI_GRADE NEWDELHI_WIND NEWDELHI_PRES NEWDELHI_CI NEWDELHI_DP NEWDELHI_POCI REUNION_LAT REUNION_LON REUNION_TYPE REUNION_WIND REUNION_PRES REUNION_TNUM REUNION_CI REUNION_RMW REUNION_R34_NE REUNION_R34_SE REUNION_R34_SW REUNION_R34_NW REUNION_R50_NE REUNION_R50_SE REUNION_R50_SW REUNION_R50_NW REUNION_R64_NE REUNION_R64_SE REUNION_R64_SW REUNION_R64_NW BOM_LAT BOM_LON BOM_TYPE BOM_WIND BOM_PRES BOM_TNUM BOM_CI BOM_RMW BOM_R34_NE BOM_R34_SE BOM_R34_SW BOM_R34_NW BOM_R50_NE BOM_R50_SE BOM_R50_SW BOM_R50_NW BOM_R64_NE BOM_R64_SE BOM_R64_SW BOM_R64_NW BOM_ROCI BOM_POCI BOM_EYE BOM_POS_METHOD BOM_PRES_METHOD NADI_LAT NADI_LON NADI_CAT NADI_WIND NADI_PRES WELLINGTON_LAT WELLINGTON_LON WELLINGTON_WIND WELLINGTON_PRES DS824_LAT DS824_LON DS824_STAGE DS824_WIND DS824_PRES TD9636_LAT TD9636_LON TD9636_STAGE TD9636_WIND TD9636_PRES TD9635_LAT TD9635_LON TD9635_WIND TD9635_PRES TD9635_ROCI NEUMANN_LAT NEUMANN_LON NEUMANN_CLASS NEUMANN_WIND NEUMANN_PRES MLC_LAT MLC_LON MLC_CLASS MLC_WIND MLC_PRES USA_GUST BOM_GUST BOM_GUST_PER REUNION_GUST REUNION_GUST_PER USA_SEAHGT USA_SEARAD_NE USA_SEARAD_SE USA_SEARAD_SW USA_SEARAD_NW STORM_SPEED STORM_DIR
1921042S12061 1921 9 SI MM NOT_NAMED 1921-02-11 06:00:00 NR -11.6000 61.3000 reunion main 1026 1011 _____O________ -1 -11.6000 61.3000 99 9.90000 3 236
1921042S12061 1921 9 SI MM NOT_NAMED 1921-02-11 09:00:00 NR -11.6734 61.1888 main 1011 1007 _____P________ -1 -11.6734 61.1888 99 3 236
1921042S12061 1921 9 SI MM NOT_NAMED 1921-02-11 12:00:00 NR -11.7494 61.0727 main 1007 993 _____P________ -1 -11.7494 61.0727 99 3 237
1921042S12061 1921 9 SI MM NOT_NAMED 1921-02-11 15:00:00 NR -11.8304 60.9468 main 989 975 _____P________ -1 -11.8304 60.9468 99 3 237
1921042S12061 1921 9 SI MM NOT_NAMED 1921-02-11 18:00:00 NR -11.9190 60.8063 main 975 961 _____P________ -1 -11.9190 60.8063 99 3 237
1921042S12061 1921 9 SI MM NOT_NAMED 1921-02-11 21:00:00 NR -12.0178 60.6463 main 957 943 _____P________ -1 -12.0178 60.6463 99 4 238
1921042S12061 1921 9 SI MM NOT_NAMED 1921-02-12 00:00:00 NR -12.1292 60.4619 main 943 926 _____P________ -1 -12.1292 60.4619 99 5 239
1921042S12061 1921 9 SI MM NOT_NAMED 1921-02-12 03:00:00 NR -12.2558 60.2481 main 912 896 _____P________ -1 -12.2558 60.2481 99 5 239
1921042S12061 1921 9 SI MM NOT_NAMED 1921-02-12 06:00:00 NR -12.4000 60.0000 reunion main 896 866 _____O________ -1 -12.4000 60.0000 99 9.90000 6 239
1921042S12061 1921 9 SI MM NOT_NAMED 1921-02-12 09:00:00 NR -12.5634 59.7149 main 866 847 _____P________ -1 -12.5634 59.7149 99 7 240
1921042S12061 1921 9 SI MM NOT_NAMED 1921-02-12 12:00:00 NR -12.7436 59.3998 main 847 819 _____P________ -1 -12.7436 59.3998 99 7 239
1921042S12061 1921 9 SI MM NOT_NAMED 1921-02-12 15:00:00 NR -12.9375 59.0638 main 819 790 _____P________ -1 -12.9375 59.0638 99 8 239
1921042S12061 1921 9 SI MM NOT_NAMED 1921-02-12 18:00:00 NR -13.1417 58.7164 main 790 764 _____P________ -1 -13.1417 58.7164 99 8 238
1921042S12061 1921 9 SI MM NOT_NAMED 1921-02-12 21:00:00 NR -13.3531 58.3669 main 753 728 _____P________ -1 -13.3531 58.3669 99 8 238
1921042S12061 1921 9 SI MM NOT_NAMED 1921-02-13 00:00:00 NR -13.5687 58.0247 main 728 705 _____P________ -1 -13.5687 58.0247 99 8 236
1921042S12061 1921 9 SI MM NOT_NAMED 1921-02-13 03:00:00 NR -13.7853 57.6992 main 705 682 _____P________ -1 -13.7853 57.6992 99 7 235
1921042S12061 1921 9 SI MM NOT_NAMED 1921-02-13 06:00:00 NR -14.0000 57.4000 reunion main 682 660 _____O________ -1 -14.0000 57.4000 99 9.90000 7 233
1921042S12061 1921 9 SI MM NOT_NAMED 1921-02-13 09:00:00 NR -14.1880 57.1588 main 660 640 _____P________ -1 -14.1880 57.1588 99 6 230
1921042S12061 1921 9 SI MM NOT_NAMED 1921-02-13 12:00:00 NR -14.3747 56.9407 main 641 619 _____P________ -1 -14.3747 56.9407 99 6 227
1921042S12061 1921 9 SI MM NOT_NAMED 1921-02-13 15:00:00 NR -14.5625 56.7418 main 621 611 _____P________ -1 -14.5625 56.7418 99 5 224
1921042S12061 1921 9 SI MM NOT_NAMED 1921-02-13 18:00:00 NR -14.7539 56.5583 main 600 591 _____P________ -1 -14.7539 56.5583 99 5 221
1921042S12061 1921 9 SI MM NOT_NAMED 1921-02-13 21:00:00 NR -14.9509 56.3863 main 582 573 _____P________ -1 -14.9509 56.3863 99 5 219
1921042S12061 1921 9 SI MM NOT_NAMED 1921-02-14 00:00:00 NR -15.1561 56.2219 main 565 546 _____P________ -1 -15.1561 56.2219 99 5 217
1921042S12061 1921 9 SI MM NOT_NAMED 1921-02-14 03:00:00 NR -15.3717 56.0611 main 546 531 _____P________ -1 -15.3717 56.0611 99 5 215
1921042S12061 1921 9 SI MM NOT_NAMED 1921-02-14 06:00:00 NR -15.6000 55.9000 reunion main 531 507 _____O________ -1 -15.6000 55.9000 99 9.90000 6 215
1921042S12061 1921 9 SI MM NOT_NAMED 1921-02-14 09:00:00 NR -15.8682 55.7017 main 507 490 _____P________ -1 -15.8682 55.7017 99 7 215
1921042S12061 1921 9 SI MM NOT_NAMED 1921-02-14 12:00:00 NR -16.1517 55.5032 main 484 469 _____P________ -1 -16.1517 55.5032 99 7 213
1921042S12061 1921 9 SI MM NOT_NAMED 1921-02-14 15:00:00 NR -16.4437 55.3078 main 474 451 _____P________ -1 -16.4437 55.3078 99 7 212
1921042S12061 1921 9 SI MM NOT_NAMED 1921-02-14 18:00:00 NR -16.7377 55.1190 main 456 435 _____P________ -1 -16.7377 55.1190 99 7 211
1921042S12061 1921 9 SI MM NOT_NAMED 1921-02-14 21:00:00 NR -17.0270 54.9402 main 442 417 _____P________ -1 -17.0270 54.9402 99 7 210
1921042S12061 1921 9 SI MM NOT_NAMED 1921-02-15 00:00:00 NR -17.3049 54.7751 main 417 387 _____P________ -1 -17.3049 54.7751 99 6 209
1921042S12061 1921 9 SI MM NOT_NAMED 1921-02-15 03:00:00 NR -17.5648 54.6272 main 387 367 _____P________ -1 -17.5648 54.6272 99 6 208
1921042S12061 1921 9 SI MM NOT_NAMED 1921-02-15 06:00:00 NR -17.8000 54.5000 reunion main 367 348 _____O________ -1 -17.8000 54.5000 99 9.90000 5 207
1921042S12061 1921 9 SI MM NOT_NAMED 1921-02-15 09:00:00 NR -17.9922 54.3952 main 348 330 _____P________ -1 -17.9922 54.3952 99 4 207
1921042S12061 1921 9 SI MM NOT_NAMED 1921-02-15 12:00:00 NR -18.1617 54.3108 main 330 319 _____P________ -1 -18.1617 54.3108 99 4 204
1921042S12061 1921 9 SI MM NOT_NAMED 1921-02-15 15:00:00 NR -18.3122 54.2445 main 323 312 _____P________ -1 -18.3122 54.2445 99 3 201
1921042S12061 1921 9 SI MM NOT_NAMED 1921-02-15 18:00:00 NR -18.4470 54.1938 main 312 292 _____P________ -1 -18.4470 54.1938 99 3 196
1921042S12061 1921 9 SI MM NOT_NAMED 1921-02-15 21:00:00 NR -18.5697 54.1564 main 292 286 _____P________ -1 -18.5697 54.1564 99 2 194
1921042S12061 1921 9 SI MM NOT_NAMED 1921-02-16 00:00:00 NR -18.6838 54.1299 main 286 276 _____P________ -1 -18.6838 54.1299 99 2 191
1921042S12061 1921 9 SI MM NOT_NAMED 1921-02-16 03:00:00 NR -18.7927 54.1119 main 276 266 _____P________ -1 -18.7927 54.1119 99 2 191
1921042S12061 1921 9 SI MM NOT_NAMED 1921-02-16 06:00:00 NR -18.9000 54.1000 reunion main 266 256 _____O________ -1 -18.9000 54.1000 99 9.90000 2 188
1921042S12061 1921 9 SI MM NOT_NAMED 1921-02-16 09:00:00 NR -19.0275 54.0813 main 256 246 _____P________ -1 -19.0275 54.0813 99 3 0
1921042S12061 1921 9 SI MM NOT_NAMED 1921-02-16 12:00:00 NR -19.1515 54.0710 main 237 227 _____P________ -1 -19.1515 54.0710 99 2 0
1921042S12061 1921 9 SI MM NOT_NAMED 1921-02-16 15:00:00 NR -19.2716 54.0677 main 227 218 _____P________ -1 -19.2716 54.0677 99 2 186
1921042S12061 1921 9 SI MM NOT_NAMED 1921-02-16 18:00:00 NR -19.3875 54.0697 main 218 209 _____P________ -1 -19.3875 54.0697 99 2 177
1921042S12061 1921 9 SI MM NOT_NAMED 1921-02-16 21:00:00 NR -19.4986 54.0755 main 209 200 _____P________ -1 -19.4986 54.0755 99 2 0
1921042S12061 1921 9 SI MM NOT_NAMED 1921-02-17 00:00:00 NR -19.6047 54.0836 main 200 191 _____P________ -1 -19.6047 54.0836 99 2 0
1921042S12061 1921 9 SI MM NOT_NAMED 1921-02-17 03:00:00 NR -19.7053 54.0923 main 191 183 _____P________ -1 -19.7053 54.0923 99 2 0
1921042S12061 1921 9 SI MM NOT_NAMED 1921-02-17 06:00:00 NR -19.8000 54.1000 reunion main 183 175 _____O________ -1 -19.8000 54.1000 99 9.90000 2 0
1921042S12061 1921 9 SI MM NOT_NAMED 1921-02-17 09:00:00 NR -19.8736 54.0924 main 175 175 _____P________ -1 -19.8736 54.0924 99 1 0
1921042S12061 1921 9 SI MM NOT_NAMED 1921-02-17 12:00:00 NR -19.9390 54.0840 main 175 167 _____P________ -1 -19.9390 54.0840 99 1 0
1921042S12061 1921 9 SI MM NOT_NAMED 1921-02-17 15:00:00 NR -20.0006 54.0761 main 167 160 _____P________ -1 -20.0006 54.0761 99 1 189
1921042S12061 1921 9 SI MM NOT_NAMED 1921-02-17 18:00:00 NR -20.0625 54.0703 main 160 160 _____P________ -1 -20.0625 54.0703 99 1 192
1921042S12061 1921 9 SI MM NOT_NAMED 1921-02-17 21:00:00 NR -20.1291 54.0683 main 160 152 _____P________ -1 -20.1291 54.0683 99 1 175
1921042S12061 1921 9 SI MM NOT_NAMED 1921-02-18 00:00:00 NR -20.2047 54.0716 main 152 145 _____P________ -1 -20.2047 54.0716 99 2 0
1921042S12061 1921 9 SI MM NOT_NAMED 1921-02-18 03:00:00 NR -20.2935 54.0816 main 145 138 _____P________ -1 -20.2935 54.0816 99 2 0
1921042S12061 1921 9 SI MM NOT_NAMED 1921-02-18 06:00:00 NR -20.4000 54.1000 reunion main 138 132 _____O________ -1 -20.4000 54.1000 99 9.90000 2 170
1921042S12061 1921 9 SI MM NOT_NAMED 1921-02-18 09:00:00 NR -20.5339 54.1126 main 132 122 _____P________ -1 -20.5339 54.1126 99 3 171
1921042S12061 1921 9 SI MM NOT_NAMED 1921-02-18 12:00:00 NR -20.6841 54.1312 main 122 109 _____P________ -1 -20.6841 54.1312 99 3 174
1921042S12061 1921 9 SI MM NOT_NAMED 1921-02-18 15:00:00 NR -20.8485 54.1583 main 109 104 _____P________ -1 -20.8485 54.1583 99 3 171
1921042S12061 1921 9 SI MM NOT_NAMED 1921-02-18 18:00:00 NR -21.0246 54.1961 main 104 103 _____P________ -1 -21.0246 54.1961 99 4 167
1921042S12061 1921 9 SI MM NOT_NAMED 1921-02-18 21:00:00 NR -21.2101 54.2468 main 104 93 _____P________ -1 -21.2101 54.2468 99 4 164
1921042S12061 1921 9 SI MM NOT_NAMED 1921-02-19 00:00:00 NR -21.4027 54.3128 main 99 94 _____P________ -1 -21.4027 54.3128 99 4 161
1921042S12061 1921 9 SI MM NOT_NAMED 1921-02-19 03:00:00 NR -21.6002 54.3964 main 98 94 _____P________ -1 -21.6002 54.3964 99 4 156
1921042S12061 1921 9 SI MM NOT_NAMED 1921-02-19 06:00:00 NR -21.8000 54.5000 reunion main 99 98 _____O________ -1 -21.8000 54.5000 99 9.90000 5 151
1921042S12061 1921 9 SI MM NOT_NAMED 1921-02-19 09:00:00 NR -22.0082 54.6392 main 106 99 _____P________ -1 -22.0082 54.6392 99 5 147
1921042S12061 1921 9 SI MM NOT_NAMED 1921-02-19 12:00:00 NR -22.2228 54.8010 main 113 113 _____P________ -1 -22.2228 54.8010 99 5 144
1921042S12061 1921 9 SI MM NOT_NAMED 1921-02-19 15:00:00 NR -22.4393 54.9793 main 126 126 _____P________ -1 -22.4393 54.9793 99 6 142
1921042S12061 1921 9 SI MM NOT_NAMED 1921-02-19 18:00:00 NR -22.6534 55.1679 main 151 148 _____P________ -1 -22.6534 55.1679 99 6 140
1921042S12061 1921 9 SI MM NOT_NAMED 1921-02-19 21:00:00 NR -22.8608 55.3605 main 168 168 _____P________ -1 -22.8608 55.3605 99 5 139
1921042S12061 1921 9 SI MM NOT_NAMED 1921-02-20 00:00:00 NR -23.0572 55.5510 main 190 190 _____P________ -1 -23.0572 55.5510 99 5 138
1921042S12061 1921 9 SI MM NOT_NAMED 1921-02-20 03:00:00 NR -23.2384 55.7330 main 201 201 _____P________ -1 -23.2384 55.7330 99 5 137
1921042S12061 1921 9 SI MM NOT_NAMED 1921-02-20 06:00:00 NR -23.4000 55.9000 reunion main 225 225 _____O________ -1 -23.4000 55.9000 99 9.90000 4 136
1921042S12061 1921 9 SI MM NOT_NAMED 1921-02-20 09:00:00 NR -23.5391 56.0471 main 238 238 _____P________ -1 -23.5391 56.0471 99 4 136
1921042S12061 1921 9 SI MM NOT_NAMED 1921-02-20 12:00:00 NR -23.6576 56.1755 main 264 264 _____P________ -1 -23.6576 56.1755 99 3 135
1921042S12061 1921 9 SI MM NOT_NAMED 1921-02-20 15:00:00 NR -23.7583 56.2877 main 277 277 _____P________ -1 -23.7583 56.2877 99 3 134
1921042S12061 1921 9 SI MM NOT_NAMED 1921-02-20 18:00:00 NR -23.8443 56.3864 main 280 280 _____P________ -1 -23.8443 56.3864 99 2 133
1921042S12061 1921 9 SI MM NOT_NAMED 1921-02-20 21:00:00 NR -23.9186 56.4743 main 294 294 _____P________ -1 -23.9186 56.4743 99 2 133
1921042S12061 1921 9 SI MM NOT_NAMED 1921-02-21 00:00:00 NR -23.9840 56.5540 main 308 308 _____P________ -1 -23.9840 56.5540 99 2 131
1921042S12061 1921 9 SI MM NOT_NAMED 1921-02-21 03:00:00 NR -24.0435 56.6283 main 308 308 _____P________ -1 -24.0435 56.6283 99 2 131
1921042S12061 1921 9 SI MM NOT_NAMED 1921-02-21 06:00:00 NR -24.1000 56.7000 reunion main 322 _____O________ -1 -24.1000 56.7000 99 9.90000 2 130

IBTrACS Databaseについて

本データベースは、米国NOAAが公開する1842年以降の世界の熱帯低気圧のベストトラックデータアーカイブInternational Best Track Archive for Climate Stewardship (IBTrACS)を、ウェブで閲覧しやすい形式に変換したものです。

最終更新日:2021-12-01